createdAt,value
2022-09-03T00:00:41.031Z,20.20
2022-09-03T00:03:22.241Z,20.10
2022-09-03T00:06:05.337Z,20.20
2022-09-03T00:08:43.289Z,20.10
2022-09-03T00:11:23.658Z,20.10
2022-09-03T00:14:04.604Z,20.20
2022-09-03T00:16:49.156Z,20.30
2022-09-03T00:19:26.154Z,20.20
2022-09-03T00:22:04.437Z,20.20
2022-09-03T00:24:46.454Z,20.00
2022-09-03T00:27:44.184Z,20.00
2022-09-03T00:30:21.924Z,20.10
2022-09-03T00:33:03.088Z,20.10
2022-09-03T00:35:42.466Z,20.00
2022-09-03T00:38:15.979Z,20.00
2022-09-03T00:41:07.300Z,20.00
2022-09-03T00:43:58.124Z,20.00
2022-09-03T00:46:43.509Z,20.00
2022-09-03T00:49:32.574Z,19.80
2022-09-03T00:52:14.743Z,19.90
2022-09-03T00:54:56.699Z,19.90
2022-09-03T00:57:40.231Z,19.90
2022-09-03T01:00:16.089Z,19.80
2022-09-03T01:03:01.215Z,19.70
2022-09-03T01:05:52.202Z,19.60
2022-09-03T01:08:47.448Z,19.60
2022-09-03T01:11:29.627Z,19.60
2022-09-03T01:14:09.322Z,19.60
2022-09-03T01:16:48.618Z,19.60
2022-09-03T01:19:53.292Z,19.70
2022-09-03T01:22:58.211Z,19.80
2022-09-03T01:25:43.019Z,19.80
2022-09-03T01:28:34.119Z,19.80
2022-09-03T01:31:19.316Z,19.80
2022-09-03T01:33:59.647Z,19.90
2022-09-03T01:36:41.813Z,19.80
2022-09-03T01:39:22.650Z,20.00
2022-09-03T01:42:20.668Z,19.90
2022-09-03T01:45:23.363Z,19.80
2022-09-03T01:48:14.344Z,19.80
2022-09-03T01:50:53.686Z,19.80
2022-09-03T01:53:42.771Z,19.90
2022-09-03T01:56:37.077Z,20.00
2022-09-03T01:59:18.397Z,19.80
2022-09-03T02:02:04.012Z,20.10
2022-09-03T02:04:50.731Z,20.20
2022-09-03T02:07:24.431Z,20.30
2022-09-03T02:09:57.034Z,20.50
2022-09-03T02:12:35.283Z,20.40
2022-09-03T02:15:14.002Z,20.40
2022-09-03T02:17:51.826Z,20.30
2022-09-03T02:20:29.534Z,20.60
2022-09-03T02:23:04.755Z,20.60
2022-09-03T02:25:41.560Z,20.30
2022-09-03T02:28:17.263Z,20.60
2022-09-03T02:33:42.969Z,20.80
2022-09-03T02:36:22.176Z,21.00
2022-09-03T02:38:58.351Z,21.00
2022-09-03T02:41:32.498Z,20.90
2022-09-03T02:44:09.614Z,21.00
2022-09-03T02:46:46.920Z,20.90
2022-09-03T02:49:22.638Z,20.70
2022-09-03T02:52:07.361Z,20.50
2022-09-03T02:54:42.877Z,20.50
2022-09-03T02:57:27.684Z,20.40
2022-09-03T03:00:01.477Z,20.50
2022-09-03T03:02:36.669Z,20.30
2022-09-03T03:05:14.529Z,20.30
2022-09-03T03:07:47.934Z,20.30
2022-09-03T03:10:22.079Z,20.20
2022-09-03T03:12:55.510Z,20.20
2022-09-03T03:15:29.739Z,20.30
2022-09-03T03:18:09.110Z,20.30
2022-09-03T03:20:46.888Z,20.20
2022-09-03T03:23:21.087Z,20.50
2022-09-03T03:25:54.272Z,20.70
2022-09-03T03:28:28.240Z,20.80
2022-09-03T03:31:02.315Z,20.60
2022-09-03T03:33:35.791Z,20.50
2022-09-03T03:36:16.516Z,20.50
2022-09-03T03:38:51.482Z,20.50
2022-09-03T03:41:26.125Z,20.50
2022-09-03T03:44:00.801Z,20.70
2022-09-03T03:46:36.050Z,20.60
2022-09-03T03:49:10.244Z,20.70
2022-09-03T03:51:45.270Z,20.80
2022-09-03T03:54:18.013Z,21.00
2022-09-03T03:56:55.587Z,20.90
2022-09-03T03:59:30.002Z,20.80
2022-09-03T04:02:03.537Z,20.90
2022-09-03T04:04:36.716Z,21.00
2022-09-03T04:07:15.102Z,21.00
2022-09-03T04:09:48.465Z,21.10
2022-09-03T04:12:22.175Z,21.00
2022-09-03T04:14:55.344Z,21.00
2022-09-03T04:17:29.121Z,20.90
2022-09-03T04:20:02.912Z,20.80
2022-09-03T04:22:37.920Z,20.90
2022-09-03T04:25:12.536Z,21.10
2022-09-03T04:27:45.626Z,21.30
2022-09-03T04:30:19.785Z,21.50
2022-09-03T04:32:58.670Z,21.60
2022-09-03T04:35:35.952Z,21.60
2022-09-03T04:38:12.901Z,21.60
2022-09-03T04:40:46.839Z,21.70
2022-09-03T04:43:20.085Z,21.70
2022-09-03T04:45:53.617Z,21.80
2022-09-03T04:48:29.199Z,21.80
2022-09-03T04:51:16.115Z,21.80
2022-09-03T04:53:52.697Z,22.00
2022-09-03T04:56:27.817Z,21.90
2022-09-03T04:59:03.006Z,22.40
2022-09-03T05:01:40.275Z,22.30
2022-09-03T05:04:15.637Z,22.10
2022-09-03T05:06:49.749Z,22.00
2022-09-03T05:09:24.996Z,22.30
2022-09-03T05:11:59.273Z,22.10
2022-09-03T05:14:33.275Z,22.10
2022-09-03T05:17:07.271Z,21.90
2022-09-03T05:19:41.179Z,21.80
2022-09-03T05:22:15.468Z,22.20
2022-09-03T05:24:50.888Z,22.40
2022-09-03T05:27:26.362Z,22.20
2022-09-03T05:29:59.455Z,22.40
2022-09-03T05:32:35.546Z,22.70
2022-09-03T05:35:10.351Z,22.30
2022-09-03T05:40:32.755Z,22.40
2022-09-03T05:43:08.508Z,22.70
2022-09-03T05:45:43.054Z,22.80
2022-09-03T05:48:17.341Z,22.60
2022-09-03T05:50:51.336Z,22.80
2022-09-03T05:53:25.441Z,22.80
2022-09-03T05:56:03.970Z,22.80
2022-09-03T05:58:38.541Z,22.80
2022-09-03T06:01:21.436Z,22.80
2022-09-03T06:04:00.612Z,23.00
2022-09-03T06:06:36.320Z,23.20
2022-09-03T06:09:11.965Z,23.10
2022-09-03T06:11:49.365Z,23.20
2022-09-03T06:14:25.286Z,23.20
2022-09-03T06:16:58.953Z,23.20
2022-09-03T06:19:33.571Z,23.30
2022-09-03T06:22:07.241Z,23.30
2022-09-03T06:24:40.906Z,23.10
2022-09-03T06:27:36.804Z,23.20
2022-09-03T06:30:11.603Z,23.10
2022-09-03T06:35:45.292Z,22.90
2022-09-03T06:38:20.194Z,22.80
2022-09-03T06:41:03.668Z,22.90
2022-09-03T06:43:41.145Z,22.80
2022-09-03T06:46:19.242Z,22.80
2022-09-03T06:48:54.955Z,22.80
2022-09-03T06:51:29.872Z,22.90
2022-09-03T06:54:07.586Z,22.80
2022-09-03T06:56:43.478Z,22.90
2022-09-03T06:59:20.836Z,22.80
2022-09-03T07:01:54.591Z,22.90
2022-09-03T07:04:29.159Z,23.10
2022-09-03T07:07:02.945Z,23.00
2022-09-03T07:09:39.888Z,23.10
2022-09-03T07:12:18.210Z,23.10
2022-09-03T07:15:12.807Z,23.20
2022-09-03T07:17:46.582Z,23.40
2022-09-03T07:20:23.481Z,23.60
2022-09-03T07:23:00.158Z,23.60
2022-09-03T07:25:37.141Z,23.60
2022-09-03T07:28:12.261Z,23.50
2022-09-03T07:30:48.051Z,23.00
2022-09-03T07:33:22.277Z,23.10
2022-09-03T07:35:58.762Z,23.20
2022-09-03T07:38:32.780Z,23.40
2022-09-03T07:41:08.281Z,23.50
2022-09-03T07:43:45.555Z,23.40
2022-09-03T07:46:24.890Z,23.50
2022-09-03T07:51:47.992Z,23.70
2022-09-03T07:54:24.191Z,23.60
2022-09-03T07:56:58.024Z,23.50
2022-09-03T07:59:31.546Z,23.50
2022-09-03T08:02:07.508Z,23.60
2022-09-03T08:04:40.835Z,23.70
2022-09-03T08:07:14.785Z,23.70
2022-09-03T08:09:48.522Z,23.90
2022-09-03T08:12:23.063Z,24.00
2022-09-03T08:14:59.715Z,24.30
2022-09-03T08:17:35.266Z,24.10
2022-09-03T08:20:10.745Z,24.10
2022-09-03T08:22:45.297Z,24.20
2022-09-03T08:25:36.913Z,24.30
2022-09-03T08:28:10.876Z,24.30
2022-09-03T08:31:11.354Z,24.50
2022-09-03T08:33:47.372Z,24.50
2022-09-03T08:36:22.887Z,24.40
2022-09-03T08:38:59.164Z,24.50
2022-09-03T08:41:44.708Z,24.60
2022-09-03T08:44:27.809Z,24.60
2022-09-03T08:47:05.248Z,24.80
2022-09-03T08:49:48.731Z,25.10
2022-09-03T08:52:32.333Z,24.90
2022-09-03T08:55:22.212Z,25.00
2022-09-03T08:57:58.637Z,25.10
2022-09-03T09:00:43.284Z,25.10
2022-09-03T09:03:42.083Z,25.10
2022-09-03T09:06:27.166Z,25.00
2022-09-03T09:09:09.190Z,25.00
2022-09-03T09:11:54.701Z,25.10
2022-09-03T09:14:39.415Z,25.10
2022-09-03T09:17:34.358Z,25.10
2022-09-03T09:20:13.824Z,25.20
2022-09-03T09:22:51.460Z,25.10
2022-09-03T09:25:27.766Z,25.20
2022-09-03T09:28:06.068Z,25.20
2022-09-03T09:30:44.507Z,24.70
2022-09-03T09:33:18.352Z,24.80
2022-09-03T09:35:52.577Z,24.90
2022-09-03T09:38:37.840Z,24.90
2022-09-03T09:41:15.270Z,24.70
2022-09-03T09:43:49.337Z,24.40
2022-09-03T09:46:28.275Z,24.40
2022-09-03T09:49:02.818Z,24.50
2022-09-03T09:51:37.320Z,24.40
2022-09-03T09:54:23.214Z,24.50
2022-09-03T09:57:04.867Z,24.60
2022-09-03T09:59:40.741Z,24.50
2022-09-03T10:02:22.210Z,24.50
2022-09-03T10:04:56.439Z,24.50
2022-09-03T10:07:32.351Z,24.40
2022-09-03T10:10:18.474Z,24.30
2022-09-03T10:13:00.736Z,24.30
2022-09-03T10:15:43.636Z,24.30
2022-09-03T10:18:29.861Z,24.30
2022-09-03T10:21:12.602Z,24.20
2022-09-03T10:23:56.077Z,24.20
2022-09-03T10:26:32.638Z,24.10
2022-09-03T10:29:08.787Z,24.10
2022-09-03T10:31:58.059Z,23.90
2022-09-03T10:34:39.085Z,23.90
2022-09-03T10:37:23.053Z,24.00
2022-09-03T10:40:19.803Z,23.90
2022-09-03T10:43:07.453Z,23.80
2022-09-03T10:45:46.168Z,23.80
2022-09-03T10:48:44.060Z,23.70
2022-09-03T10:51:22.949Z,23.70
2022-09-03T10:54:30.894Z,23.70
2022-09-03T10:57:16.544Z,23.70
2022-09-03T11:00:09.767Z,23.60
2022-09-03T11:03:04.827Z,23.60
2022-09-03T11:05:42.857Z,23.50
2022-09-03T11:08:22.428Z,23.50
2022-09-03T11:10:59.421Z,23.40
2022-09-03T11:13:37.681Z,23.30
2022-09-03T11:16:19.345Z,23.10
2022-09-03T11:18:56.360Z,23.10
2022-09-03T11:21:32.675Z,23.10
2022-09-03T11:24:16.395Z,23.10
2022-09-03T11:26:53.182Z,23.00
2022-09-03T11:29:39.246Z,23.00
2022-09-03T11:32:22.963Z,22.90
2022-09-03T11:34:58.747Z,22.80
2022-09-03T11:37:34.543Z,22.70
2022-09-03T11:40:18.590Z,22.70
2022-09-03T11:42:52.668Z,22.70
2022-09-03T11:45:41.403Z,22.70
2022-09-03T11:48:39.918Z,22.70
2022-09-03T11:51:38.863Z,22.60
2022-09-03T11:54:28.433Z,22.60
2022-09-03T11:57:18.715Z,22.60
2022-09-03T11:59:52.805Z,22.60
2022-09-03T12:02:35.012Z,22.60
2022-09-03T12:05:23.766Z,22.60
2022-09-03T12:08:30.564Z,22.60
2022-09-03T12:11:28.311Z,22.60
2022-09-03T12:14:13.586Z,22.60
2022-09-03T12:17:03.991Z,22.60
2022-09-03T12:19:45.924Z,22.50
2022-09-03T12:22:21.912Z,22.60
2022-09-03T12:24:56.258Z,22.60
2022-09-03T12:27:31.873Z,22.50
2022-09-03T12:33:20.045Z,22.40
2022-09-03T12:36:04.460Z,22.50
2022-09-03T12:39:10.431Z,22.40
2022-09-03T12:41:40.289Z,22.40
2022-09-03T12:44:17.413Z,22.40
2022-09-03T12:47:34.029Z,22.30
2022-09-03T12:49:50.184Z,22.30
2022-09-03T12:52:29.220Z,22.30
2022-09-03T12:55:07.832Z,22.20
2022-09-03T12:57:46.208Z,22.20
2022-09-03T13:00:22.301Z,22.20
2022-09-03T13:03:00.861Z,22.20
2022-09-03T13:05:38.931Z,22.20
2022-09-03T13:08:14.931Z,22.30
2022-09-03T13:10:55.040Z,22.20
2022-09-03T13:13:30.353Z,22.20
2022-09-03T13:16:28.495Z,22.30
2022-09-03T13:19:09.351Z,22.20
2022-09-03T13:21:54.178Z,22.20
2022-09-03T13:24:49.319Z,22.20
2022-09-03T13:27:41.831Z,22.20
2022-09-03T13:30:18.508Z,22.20
2022-09-03T13:33:02.924Z,22.20
2022-09-03T13:35:42.507Z,22.30
2022-09-03T13:38:36.942Z,22.30
2022-09-03T13:41:20.775Z,22.30
2022-09-03T13:44:01.988Z,22.20
2022-09-03T13:46:44.265Z,22.30
2022-09-03T13:49:47.248Z,22.30
2022-09-03T13:52:31.876Z,22.30
2022-09-03T13:55:14.333Z,22.30
2022-09-03T13:58:06.265Z,22.30
2022-09-03T14:00:47.499Z,22.20
2022-09-03T14:03:36.698Z,22.30
2022-09-03T14:06:18.046Z,22.10
2022-09-03T14:09:08.412Z,22.10
2022-09-03T14:11:57.644Z,22.10
2022-09-03T14:14:42.397Z,22.10
2022-09-03T14:17:24.121Z,22.10
2022-09-03T14:20:03.485Z,21.90
2022-09-03T14:22:49.891Z,22.00
2022-09-03T14:25:26.265Z,22.00
2022-09-03T14:28:16.459Z,22.00
2022-09-03T14:30:59.465Z,22.00
2022-09-03T14:33:51.300Z,22.00
2022-09-03T14:36:33.319Z,21.90
2022-09-03T14:39:28.318Z,21.90
2022-09-03T14:42:44.505Z,21.90
2022-09-03T14:45:55.261Z,21.90
2022-09-03T14:48:54.812Z,21.90
2022-09-03T14:51:38.641Z,21.90
2022-09-03T14:54:37.165Z,22.00
2022-09-03T14:57:28.811Z,21.90
2022-09-03T15:00:20.143Z,21.90
2022-09-03T15:06:31.321Z,21.90
2022-09-03T15:09:25.395Z,21.80
2022-09-03T15:12:03.525Z,21.70
2022-09-03T15:14:45.394Z,21.80
2022-09-03T15:17:45.079Z,21.70
2022-09-03T15:20:40.025Z,21.70
2022-09-03T15:23:43.034Z,21.60
2022-09-03T15:26:38.241Z,21.60
2022-09-03T15:29:38.958Z,21.50
2022-09-03T15:32:23.000Z,21.50
2022-09-03T15:35:06.897Z,21.50
2022-09-03T15:37:47.613Z,21.50
2022-09-03T15:40:41.039Z,21.40
2022-09-03T15:43:20.593Z,21.40
2022-09-03T15:46:00.821Z,21.40
2022-09-03T15:48:41.585Z,21.50
2022-09-03T15:51:22.879Z,21.50
2022-09-03T15:54:05.106Z,21.40
2022-09-03T15:56:46.625Z,21.40
2022-09-03T15:59:25.782Z,21.40
2022-09-03T16:02:03.569Z,21.40
2022-09-03T16:04:52.922Z,21.40
2022-09-03T16:07:35.894Z,21.40
2022-09-03T16:10:25.924Z,21.50
2022-09-03T16:13:10.173Z,21.50
2022-09-03T16:15:49.506Z,21.50
2022-09-03T16:18:32.065Z,21.50
2022-09-03T16:21:14.559Z,21.50
2022-09-03T16:23:56.500Z,21.30
2022-09-03T16:26:36.747Z,21.40
2022-09-03T16:29:18.236Z,21.40
2022-09-03T16:32:07.041Z,21.30
2022-09-03T16:34:50.150Z,21.30
2022-09-03T16:37:32.551Z,21.30
2022-09-03T16:40:27.149Z,21.30
2022-09-03T16:43:38.967Z,21.30
2022-09-03T16:46:18.905Z,21.30
2022-09-03T16:49:03.643Z,21.20
2022-09-03T16:51:44.157Z,21.20
2022-09-03T16:54:38.813Z,21.20
2022-09-03T16:57:24.805Z,21.20
2022-09-03T17:00:12.187Z,21.20
2022-09-03T17:03:11.644Z,21.20
2022-09-03T17:06:11.459Z,21.20
2022-09-03T17:08:54.732Z,21.20
2022-09-03T17:11:57.314Z,21.20
2022-09-03T17:14:54.508Z,21.20
2022-09-03T17:17:46.951Z,21.20
2022-09-03T17:20:32.017Z,21.20
2022-09-03T17:26:15.476Z,21.10
2022-09-03T17:29:01.962Z,21.00
2022-09-03T17:31:52.598Z,21.10
2022-09-03T17:34:43.866Z,21.00
2022-09-03T17:37:34.603Z,21.10
2022-09-03T17:40:29.481Z,21.00
2022-09-03T17:43:12.456Z,20.90
2022-09-03T17:45:55.072Z,20.90
2022-09-03T17:48:52.817Z,21.00
2022-09-03T17:51:49.945Z,21.00
2022-09-03T17:54:37.394Z,21.10
2022-09-03T17:57:22.068Z,21.00
2022-09-03T18:00:01.784Z,21.00
2022-09-03T18:02:47.736Z,21.10
2022-09-03T18:05:26.680Z,21.20
2022-09-03T18:08:06.823Z,21.10
2022-09-03T18:10:53.667Z,21.10
2022-09-03T18:13:35.847Z,21.10
2022-09-03T18:16:14.697Z,21.10
2022-09-03T18:18:50.662Z,21.00
2022-09-03T18:21:42.644Z,21.00
2022-09-03T18:24:44.707Z,21.00
2022-09-03T18:27:47.737Z,21.00
2022-09-03T18:30:37.662Z,21.10
2022-09-03T18:33:27.491Z,21.00
2022-09-03T18:36:19.894Z,21.00
2022-09-03T18:39:09.901Z,21.00
2022-09-03T18:42:15.769Z,21.00
2022-09-03T18:45:42.259Z,21.00
2022-09-03T18:48:47.160Z,21.00
2022-09-03T18:51:47.022Z,21.00
2022-09-03T18:55:06.807Z,21.10
2022-09-03T18:58:08.069Z,21.10
2022-09-03T19:01:07.087Z,21.10
2022-09-03T19:04:12.645Z,21.00
2022-09-03T19:07:10.406Z,21.10
2022-09-03T19:10:12.657Z,21.00
2022-09-03T19:13:14.742Z,21.00
2022-09-03T19:16:16.978Z,21.00
2022-09-03T19:19:22.376Z,21.00
2022-09-03T19:22:26.601Z,21.00
2022-09-03T19:25:25.682Z,21.00
2022-09-03T19:28:27.823Z,20.90
2022-09-03T19:31:42.646Z,20.90
2022-09-03T19:34:43.020Z,20.90
2022-09-03T19:37:38.136Z,20.90
2022-09-03T19:40:51.792Z,20.90
2022-09-03T19:43:49.054Z,20.80
2022-09-03T19:46:52.805Z,20.90
2022-09-03T19:49:51.509Z,20.90
2022-09-03T19:52:49.564Z,20.90
2022-09-03T19:55:46.980Z,21.00
2022-09-03T19:58:43.735Z,20.90
2022-09-03T20:01:34.278Z,21.00
2022-09-03T20:04:33.102Z,21.00
2022-09-03T20:07:24.725Z,21.00
2022-09-03T20:10:17.600Z,21.00
2022-09-03T20:13:10.692Z,21.00
2022-09-03T20:15:56.617Z,21.00
2022-09-03T20:18:42.541Z,21.00
2022-09-03T20:21:26.379Z,21.00
2022-09-03T20:24:15.383Z,21.00
2022-09-03T20:26:58.356Z,21.00
2022-09-03T20:29:45.125Z,21.00
2022-09-03T20:32:33.266Z,21.00
2022-09-03T20:35:14.907Z,21.10
2022-09-03T20:37:57.848Z,21.10
2022-09-03T20:40:39.015Z,21.10
2022-09-03T20:43:32.153Z,21.10
2022-09-03T20:46:17.654Z,21.10
2022-09-03T20:48:59.477Z,21.10
2022-09-03T20:51:37.673Z,21.00
2022-09-03T20:54:17.257Z,21.10
2022-09-03T20:57:23.353Z,21.10
2022-09-03T21:00:19.838Z,21.00
2022-09-03T21:03:17.411Z,21.00
2022-09-03T21:06:06.319Z,21.10
2022-09-03T21:09:00.106Z,21.00
2022-09-03T21:11:43.579Z,21.10
2022-09-03T21:14:32.728Z,21.10
2022-09-03T21:17:25.834Z,21.10
2022-09-03T21:20:12.645Z,21.10
2022-09-03T21:22:59.824Z,21.20
2022-09-03T21:25:39.422Z,21.10
2022-09-03T21:28:21.942Z,21.20
2022-09-03T21:31:00.549Z,21.20
2022-09-03T21:33:37.014Z,21.20
2022-09-03T21:36:17.557Z,21.20
2022-09-03T21:38:57.152Z,21.20
2022-09-03T21:41:38.603Z,21.20
2022-09-03T21:44:20.820Z,21.20
2022-09-03T21:46:58.543Z,21.20
2022-09-03T21:49:43.041Z,21.20
2022-09-03T21:52:19.682Z,21.10
2022-09-03T21:54:55.173Z,21.10
2022-09-03T21:57:35.688Z,21.10
2022-09-03T22:00:21.519Z,21.10
2022-09-03T22:02:58.357Z,21.10
2022-09-03T22:05:37.414Z,21.10
2022-09-03T22:08:22.387Z,21.10
2022-09-03T22:11:02.258Z,21.10
2022-09-03T22:13:39.838Z,21.10
2022-09-03T22:16:22.155Z,21.00
2022-09-03T22:18:57.686Z,21.00
2022-09-03T22:21:37.104Z,21.10
2022-09-03T22:24:24.114Z,21.10
2022-09-03T22:27:02.961Z,21.10
2022-09-03T22:29:46.266Z,21.10
2022-09-03T22:32:39.551Z,21.10
2022-09-03T22:35:53.621Z,21.10
2022-09-03T22:38:52.086Z,21.10
2022-09-03T22:41:48.342Z,21.10
2022-09-03T22:44:46.768Z,21.10
2022-09-03T22:47:33.777Z,21.20
2022-09-03T22:50:23.371Z,21.30
2022-09-03T22:53:04.923Z,21.30
2022-09-03T22:55:44.611Z,21.30
2022-09-03T22:58:23.617Z,21.30
2022-09-03T23:01:03.084Z,21.20
2022-09-03T23:03:57.531Z,21.20
2022-09-03T23:06:36.789Z,21.30
2022-09-03T23:09:13.071Z,21.30
2022-09-03T23:11:49.458Z,21.40
2022-09-03T23:14:29.572Z,21.40
2022-09-03T23:17:09.094Z,21.40
2022-09-03T23:19:47.473Z,21.40
2022-09-03T23:22:29.255Z,21.40
2022-09-03T23:25:06.754Z,21.40
2022-09-03T23:27:44.939Z,21.30
2022-09-03T23:30:19.647Z,21.30
2022-09-03T23:32:56.744Z,21.40
2022-09-03T23:35:36.245Z,21.30
2022-09-03T23:38:17.389Z,21.40
2022-09-03T23:40:53.058Z,21.40
2022-09-03T23:44:02.624Z,21.50
2022-09-03T23:49:56.787Z,21.70
2022-09-03T23:55:55.869Z,21.70
2022-09-03T23:58:39.037Z,21.80
